Time;durP1;ratioP1;P1;durP2;ratioP2;P2;SDS_P1;SDS_P2;PMS_P1;PMS_P2;Temp;Humidity;BMP_temperature;BMP_pressure;BME280_temperature;BME280_humidity;BME280_pressure;Samples;Min_cycle;Max_cycle;Signal;HPM_P1;HPM_P2
2023/09/14 00:00:54;;;;;;;6.95;5.57;;;16.10;99.90;;;;;;4939642;29;20031;-81
2023/09/14 00:03:20;;;;;;;7.03;5.85;;;16.10;99.90;;;;;;4940298;29;20054;-81
2023/09/14 00:05:49;;;;;;;7.40;5.43;;;16.10;99.90;;;;;;4938957;29;20035;-81
2023/09/14 00:08:14;;;;;;;8.05;5.90;;;16.20;99.90;;;;;;4937582;29;20070;-81
2023/09/14 00:10:41;;;;;;;8.35;5.95;;;16.20;99.90;;;;;;4937934;29;20027;-81
2023/09/14 00:13:07;;;;;;;6.57;5.88;;;16.10;99.90;;;;;;4938585;29;20541;-81
2023/09/14 00:15:33;;;;;;;6.55;5.80;;;16.10;99.90;;;;;;4936132;29;20175;-81
2023/09/14 00:17:59;;;;;;;8.88;5.65;;;16.10;99.90;;;;;;4936479;29;20383;-82
2023/09/14 00:20:27;;;;;;;8.43;5.78;;;16.10;99.90;;;;;;4937470;29;20483;-81
2023/09/14 00:22:55;;;;;;;7.82;6.07;;;16.10;99.90;;;;;;4936626;29;20514;-81
2023/09/14 00:25:21;;;;;;;10.35;5.72;;;16.10;99.90;;;;;;4937734;29;20031;-82
2023/09/14 00:27:47;;;;;;;7.05;5.88;;;16.10;99.90;;;;;;4937537;29;20502;-81
2023/09/14 00:30:14;;;;;;;8.20;5.78;;;16.10;99.90;;;;;;4936977;29;21373;-81
2023/09/14 00:32:40;;;;;;;9.35;6.45;;;16.10;99.90;;;;;;4938112;28;20407;-81
2023/09/14 00:35:12;;;;;;;7.90;6.15;;;16.10;99.90;;;;;;4938453;29;20164;-81
2023/09/14 00:37:39;;;;;;;10.68;6.05;;;16.10;99.90;;;;;;4923001;29;20103;-81
2023/09/14 00:40:10;;;;;;;8.05;6.40;;;16.10;99.90;;;;;;4935910;29;20031;-81
2023/09/14 00:42:43;;;;;;;10.70;6.65;;;16.10;99.90;;;;;;4936895;29;20034;-81
2023/09/14 00:45:12;;;;;;;7.15;6.05;;;16.10;99.90;;;;;;4937930;29;20154;-81
2023/09/14 00:47:47;;;;;;;7.72;6.25;;;16.10;99.90;;;;;;4938320;29;20715;-81
2023/09/14 00:50:15;;;;;;;7.80;6.90;;;16.10;99.90;;;;;;4938376;29;20038;-81
2023/09/14 00:52:44;;;;;;;8.98;7.15;;;16.10;99.90;;;;;;4938063;29;20036;-81
2023/09/14 00:55:10;;;;;;;8.85;6.80;;;16.10;99.90;;;;;;4938865;29;20024;-81
2023/09/14 00:57:36;;;;;;;8.40;6.75;;;16.10;99.90;;;;;;4938031;29;20027;-81
2023/09/14 01:00:06;;;;;;;9.93;7.13;;;16.10;99.90;;;;;;4937110;29;20031;-81
2023/09/14 01:02:34;;;;;;;10.00;7.53;;;16.10;99.90;;;;;;4938466;29;20111;-81
2023/09/14 01:05:01;;;;;;;12.15;7.78;;;16.00;99.90;;;;;;4937710;29;20023;-81
2023/09/14 01:07:27;;;;;;;10.95;8.10;;;16.00;99.90;;;;;;4938806;29;20031;-81
2023/09/14 01:09:53;;;;;;;11.30;8.57;;;16.00;99.90;;;;;;4937405;29;20106;-81
2023/09/14 01:12:19;;;;;;;10.45;8.07;;;16.00;99.90;;;;;;4938010;29;20027;-81
2023/09/14 01:14:54;;;;;;;8.32;7.43;;;15.90;99.90;;;;;;4938169;29;20027;-81
2023/09/14 01:17:25;;;;;;;12.93;8.65;;;15.90;99.90;;;;;;4938795;29;20035;-81
2023/09/14 01:20:01;;;;;;;12.25;7.93;;;15.90;99.90;;;;;;4937880;29;20028;-81
2023/09/14 01:22:58;;;;;;;9.68;8.35;;;15.80;99.90;;;;;;4939355;29;20027;-81
2023/09/14 01:25:45;;;;;;;11.88;8.82;;;15.80;99.90;;;;;;4939783;29;20043;-81
2023/09/14 01:28:12;;;;;;;13.05;9.52;;;15.80;99.90;;;;;;4940888;29;20043;-81
2023/09/14 01:30:37;;;;;;;13.25;10.27;;;15.80;99.90;;;;;;4923356;29;20031;-81
2023/09/14 01:33:09;;;;;;;13.02;9.82;;;15.80;99.90;;;;;;4942551;29;20040;-81
2023/09/14 01:35:42;;;;;;;13.65;10.30;;;15.70;99.90;;;;;;4945718;29;20020;-80
2023/09/14 01:38:09;;;;;;;13.15;11.20;;;15.70;99.90;;;;;;4957699;28;20093;-80
2023/09/14 01:40:36;;;;;;;12.80;10.82;;;15.70;99.90;;;;;;4961035;28;20112;-80
2023/09/14 01:43:03;;;;;;;14.63;11.40;;;15.70;99.90;;;;;;4956779;28;20039;-81
2023/09/14 01:45:30;;;;;;;13.48;11.70;;;15.60;99.90;;;;;;4939300;29;20042;-81
2023/09/14 01:47:56;;;;;;;14.70;11.60;;;15.60;99.90;;;;;;4941790;29;20970;-81
2023/09/14 01:50:21;;;;;;;14.57;11.43;;;15.60;99.90;;;;;;4941513;29;20035;-81
2023/09/14 01:52:52;;;;;;;14.35;11.57;;;15.60;99.90;;;;;;4942151;29;20023;-81
2023/09/14 01:55:18;;;;;;;15.50;11.98;;;15.60;99.90;;;;;;4942727;29;20206;-81
2023/09/14 01:57:44;;;;;;;16.70;13.43;;;15.50;99.90;;;;;;4941981;29;20039;-81
2023/09/14 02:00:10;;;;;;;17.77;13.88;;;15.50;99.90;;;;;;4941331;29;20518;-81
2023/09/14 02:02:36;;;;;;;18.70;14.23;;;15.60;99.90;;;;;;4941390;29;20032;-81
2023/09/14 02:05:01;;;;;;;16.13;13.43;;;15.50;99.90;;;;;;4941732;29;20074;-81
2023/09/14 02:07:27;;;;;;;18.27;13.57;;;15.60;99.90;;;;;;4942107;29;20289;-81
2023/09/14 02:09:52;;;;;;;17.13;13.32;;;15.50;99.90;;;;;;4942191;29;20038;-81
2023/09/14 02:12:20;;;;;;;19.60;13.38;;;15.60;99.90;;;;;;4945839;29;20032;-80
2023/09/14 02:14:46;;;;;;;25.88;13.20;;;15.60;99.90;;;;;;4947521;29;20030;-81
2023/09/14 02:17:11;;;;;;;17.08;13.15;;;15.60;99.90;;;;;;4941600;29;20023;-81
2023/09/14 02:19:37;;;;;;;18.50;13.43;;;15.60;99.90;;;;;;4942732;29;20522;-81
2023/09/14 02:22:03;;;;;;;17.83;12.88;;;15.60;99.90;;;;;;4942657;29;20058;-81
2023/09/14 02:24:28;;;;;;;19.83;13.88;;;15.60;99.90;;;;;;4940612;29;20054;-81
2023/09/14 02:26:54;;;;;;;22.42;15.55;;;15.60;99.90;;;;;;4941274;29;20057;-81
2023/09/14 02:29:20;;;;;;;23.52;15.18;;;15.60;99.90;;;;;;4940907;29;20023;-81
2023/09/14 02:31:46;;;;;;;21.42;16.23;;;15.60;99.90;;;;;;4941326;29;20031;-82
2023/09/14 02:34:11;;;;;;;19.48;14.38;;;15.70;99.90;;;;;;4940394;29;20038;-81
2023/09/14 02:36:38;;;;;;;22.38;15.98;;;15.70;99.90;;;;;;4922810;29;20098;-81
2023/09/14 02:39:04;;;;;;;19.13;14.93;;;15.70;99.90;;;;;;4940316;29;20024;-81
2023/09/14 02:41:29;;;;;;;22.05;15.27;;;15.70;99.90;;;;;;4940079;29;20790;-81
2023/09/14 02:43:55;;;;;;;19.48;15.40;;;15.70;99.90;;;;;;4940398;29;20407;-81
2023/09/14 02:46:21;;;;;;;19.50;15.18;;;15.70;99.90;;;;;;4939852;29;20031;-81
2023/09/14 02:48:46;;;;;;;21.08;15.90;;;15.80;99.90;;;;;;4939871;29;20063;-81
2023/09/14 02:51:12;;;;;;;18.23;14.65;;;15.80;99.90;;;;;;4939790;29;20086;-81
2023/09/14 02:53:37;;;;;;;20.85;15.15;;;15.80;99.90;;;;;;4939920;29;20032;-81
2023/09/14 02:56:10;;;;;;;21.45;15.25;;;15.80;99.90;;;;;;4939113;29;20027;-81
2023/09/14 02:58:36;;;;;;;17.80;14.43;;;15.80;99.90;;;;;;4939376;29;20082;-81
2023/09/14 03:01:11;;;;;;;21.90;16.02;;;15.80;99.90;;;;;;4938714;29;20031;-81
2023/09/14 03:03:37;;;;;;;21.00;15.95;;;15.80;99.90;;;;;;4939456;29;20140;-81
2023/09/14 03:06:03;;;;;;;17.42;14.73;;;15.80;99.90;;;;;;4938971;29;20122;-82
2023/09/14 03:08:29;;;;;;;19.95;15.55;;;15.80;99.90;;;;;;4940008;29;20114;-81
2023/09/14 03:10:55;;;;;;;20.42;15.43;;;15.80;99.90;;;;;;4936939;29;21064;-81
2023/09/14 03:13:22;;;;;;;22.58;15.32;;;15.80;99.90;;;;;;4939313;29;20119;-81
2023/09/14 03:15:55;;;;;;;19.88;15.35;;;15.80;99.90;;;;;;4938625;29;20885;-81
2023/09/14 03:18:21;;;;;;;22.35;15.60;;;15.80;99.90;;;;;;4938774;29;20561;-81
2023/09/14 03:20:48;;;;;;;24.00;16.38;;;15.80;99.90;;;;;;4937469;29;20035;-81
2023/09/14 03:23:14;;;;;;;22.00;16.85;;;15.80;99.90;;;;;;4938478;29;20028;-81
2023/09/14 03:25:39;;;;;;;22.48;16.83;;;15.80;99.90;;;;;;4938142;29;20031;-81
2023/09/14 03:28:05;;;;;;;20.90;17.13;;;15.90;99.90;;;;;;4937943;29;20032;-81
2023/09/14 03:30:31;;;;;;;23.73;16.67;;;15.80;99.90;;;;;;4937122;29;20027;-81
2023/09/14 03:32:56;;;;;;;20.88;16.40;;;15.90;99.90;;;;;;4937712;29;20115;-81
2023/09/14 03:35:22;;;;;;;21.35;15.45;;;15.90;99.90;;;;;;4937627;29;20023;-80
2023/09/14 03:37:48;;;;;;;24.05;16.58;;;15.90;99.90;;;;;;4937205;29;20824;-81
2023/09/14 03:40:13;;;;;;;20.17;15.80;;;15.90;99.90;;;;;;4936216;29;20042;-82
2023/09/14 03:42:40;;;;;;;20.58;16.38;;;15.90;99.90;;;;;;4940961;29;20107;-81
2023/09/14 03:45:06;;;;;;;22.27;16.65;;;15.90;99.90;;;;;;4943009;29;20020;-81
2023/09/14 03:47:32;;;;;;;25.10;19.15;;;16.00;99.90;;;;;;4942660;29;20040;-81
2023/09/14 03:49:58;;;;;;;25.50;18.58;;;15.90;99.90;;;;;;4939782;29;20051;-81
2023/09/14 03:52:24;;;;;;;25.85;19.17;;;15.90;99.90;;;;;;4922648;29;20057;-81
2023/09/14 03:54:50;;;;;;;26.08;19.15;;;16.00;99.90;;;;;;4938878;29;20116;-81
2023/09/14 03:57:15;;;;;;;21.58;17.85;;;16.00;99.90;;;;;;4939799;29;20039;-81
2023/09/14 03:59:45;;;;;;;24.67;18.30;;;16.00;99.90;;;;;;4939793;29;20067;-81
2023/09/14 04:02:10;;;;;;;25.88;18.05;;;16.00;99.90;;;;;;4940512;29;20023;-81
2023/09/14 04:04:40;;;;;;;22.10;17.48;;;16.00;99.90;;;;;;4938937;29;20140;-81
2023/09/14 04:07:06;;;;;;;24.95;18.33;;;16.00;99.90;;;;;;4940228;29;20027;-81
2023/09/14 04:09:32;;;;;;;22.90;17.63;;;16.00;99.90;;;;;;4938921;28;20414;-81
2023/09/14 04:11:58;;;;;;;20.95;16.90;;;16.00;99.90;;;;;;4941004;29;20031;-81
2023/09/14 04:14:24;;;;;;;21.60;16.33;;;16.00;99.90;;;;;;4940138;29;20465;-81
2023/09/14 04:17:00;;;;;;;21.85;17.48;;;16.00;99.90;;;;;;4940039;29;20068;-81
2023/09/14 04:19:27;;;;;;;24.85;18.20;;;16.00;99.90;;;;;;4940031;29;20070;-81
2023/09/14 04:21:53;;;;;;;24.80;17.88;;;16.00;99.90;;;;;;4941613;29;20584;-81
2023/09/14 04:24:19;;;;;;;25.70;18.40;;;16.00;99.90;;;;;;4924932;29;20031;-81
2023/09/14 04:26:45;;;;;;;28.45;18.88;;;16.00;99.90;;;;;;4943051;29;20048;-81
2023/09/14 04:29:11;;;;;;;24.77;18.35;;;16.00;99.90;;;;;;4944149;29;20078;-81
2023/09/14 04:31:37;;;;;;;34.45;19.13;;;16.00;99.90;;;;;;4947790;29;20028;-81
2023/09/14 04:34:04;;;;;;;27.52;19.02;;;16.00;99.90;;;;;;4958266;28;20047;-80
2023/09/14 04:36:31;;;;;;;25.92;18.75;;;16.00;99.90;;;;;;4963100;28;20031;-80
2023/09/14 04:38:56;;;;;;;23.80;18.25;;;16.00;99.90;;;;;;4954752;28;20029;-81
2023/09/14 04:41:22;;;;;;;25.48;18.08;;;16.00;99.90;;;;;;4938133;29;20082;-81
2023/09/14 04:43:48;;;;;;;24.88;19.60;;;16.00;99.90;;;;;;4939264;29;20023;-81
2023/09/14 04:46:14;;;;;;;24.60;18.42;;;16.00;99.90;;;;;;4948434;29;20058;-80
2023/09/14 04:48:41;;;;;;;28.98;19.67;;;16.00;99.90;;;;;;4937599;29;20063;-81
2023/09/14 04:51:07;;;;;;;25.38;18.52;;;16.00;99.90;;;;;;4936793;29;20078;-81
2023/09/14 04:53:32;;;;;;;29.25;20.83;;;16.00;99.90;;;;;;4937283;29;20395;-81
2023/09/14 04:55:58;;;;;;;24.58;19.13;;;16.00;99.90;;;;;;4936036;29;20509;-81
2023/09/14 04:58:24;;;;;;;27.10;19.75;;;16.00;99.90;;;;;;4936835;29;20027;-81
2023/09/14 05:00:49;;;;;;;25.35;18.60;;;16.00;99.90;;;;;;4935872;29;20097;-81
2023/09/14 05:03:18;;;;;;;26.52;17.88;;;16.00;99.90;;;;;;4935781;29;20082;-81
2023/09/14 05:05:52;;;;;;;27.05;18.48;;;16.00;99.90;;;;;;4935863;29;20031;-81
2023/09/14 05:08:18;;;;;;;25.70;19.42;;;16.00;99.90;;;;;;4935564;29;20383;-81
2023/09/14 05:10:43;;;;;;;24.45;18.98;;;16.00;99.90;;;;;;4935363;29;20091;-81
2023/09/14 05:13:09;;;;;;;22.35;18.08;;;16.00;99.90;;;;;;4935433;29;20030;-81
2023/09/14 05:15:34;;;;;;;23.60;18.08;;;16.00;99.90;;;;;;4936607;29;20410;-81
2023/09/14 05:18:00;;;;;;;24.27;18.60;;;16.00;99.90;;;;;;4935851;29;20501;-81
2023/09/14 05:20:25;;;;;;;26.35;18.80;;;16.00;99.90;;;;;;4939008;28;20123;-81
2023/09/14 05:22:51;;;;;;;28.42;19.15;;;16.00;99.90;;;;;;4941185;29;20027;-81
2023/09/14 05:25:17;;;;;;;24.75;18.08;;;16.00;99.90;;;;;;4942036;29;20115;-81
2023/09/14 05:27:42;;;;;;;27.27;19.58;;;16.00;99.90;;;;;;4941815;29;20036;-81
2023/09/14 05:30:09;;;;;;;24.75;19.40;;;15.90;99.90;;;;;;4941293;29;20791;-81
2023/09/14 05:32:35;;;;;;;29.08;19.48;;;16.00;99.90;;;;;;4939749;29;20035;-82
2023/09/14 05:35:02;;;;;;;26.77;19.80;;;15.90;99.90;;;;;;4939429;29;20406;-81
2023/09/14 05:37:28;;;;;;;24.67;19.10;;;15.90;99.90;;;;;;4940810;29;20062;-81
2023/09/14 05:39:54;;;;;;;24.50;19.25;;;15.90;99.90;;;;;;4938800;29;20462;-81
2023/09/14 05:42:21;;;;;;;27.50;20.77;;;15.90;99.90;;;;;;4939797;29;20189;-81
2023/09/14 05:44:48;;;;;;;27.80;19.52;;;15.90;99.90;;;;;;4940511;29;20027;-80
2023/09/14 05:47:14;;;;;;;27.27;19.15;;;15.90;99.90;;;;;;4921909;29;20043;-81
2023/09/14 05:49:40;;;;;;;24.20;18.55;;;16.00;99.90;;;;;;4938940;29;20139;-81
2023/09/14 05:52:05;;;;;;;28.23;20.00;;;16.00;99.90;;;;;;4940257;29;20034;-81
2023/09/14 05:54:31;;;;;;;30.45;20.85;;;16.10;99.90;;;;;;4924603;29;20059;-81
2023/09/14 05:56:56;;;;;;;23.63;18.63;;;16.10;99.90;;;;;;4939307;29;20031;-80
2023/09/14 05:59:22;;;;;;;27.45;20.00;;;16.20;99.90;;;;;;4923896;29;20035;-81
2023/09/14 06:01:48;;;;;;;29.08;21.20;;;16.20;99.90;;;;;;4938948;29;20488;-80
2023/09/14 06:04:13;;;;;;;27.95;20.20;;;16.20;99.90;;;;;;4939770;29;20588;-81
2023/09/14 06:06:39;;;;;;;29.88;21.65;;;16.20;99.90;;;;;;4939398;29;20035;-81
2023/09/14 06:09:04;;;;;;;27.20;21.08;;;16.20;99.90;;;;;;4939725;29;20027;-81
2023/09/14 06:11:30;;;;;;;26.58;19.95;;;16.30;99.90;;;;;;4938706;29;20031;-81
2023/09/14 06:13:55;;;;;;;29.27;21.27;;;16.30;99.90;;;;;;4939770;29;20027;-80
2023/09/14 06:16:22;;;;;;;27.85;21.77;;;16.30;99.90;;;;;;4938591;29;20387;-80
2023/09/14 06:18:48;;;;;;;30.10;21.98;;;16.30;99.90;;;;;;4938663;29;20035;-80
2023/09/14 06:21:13;;;;;;;31.55;24.33;;;16.40;99.90;;;;;;4937201;29;20035;-80
2023/09/14 06:23:41;;;;;;;31.90;24.80;;;16.40;99.90;;;;;;4938995;28;20028;-80
2023/09/14 06:26:07;;;;;;;36.03;28.75;;;16.40;99.90;;;;;;4938617;29;20167;-81
2023/09/14 06:28:32;;;;;;;32.53;26.15;;;16.40;99.90;;;;;;4938083;29;20074;-80
2023/09/14 06:30:59;;;;;;;31.15;25.67;;;16.40;99.90;;;;;;4937929;28;20028;-80
2023/09/14 06:33:24;;;;;;;34.88;26.85;;;16.40;99.90;;;;;;4937759;29;20082;-80
2023/09/14 06:35:50;;;;;;;32.65;25.85;;;16.40;99.90;;;;;;4937268;29;20023;-80
2023/09/14 06:38:15;;;;;;;32.55;27.67;;;16.40;99.90;;;;;;4936900;29;20031;-81
2023/09/14 06:40:41;;;;;;;34.35;28.38;;;16.40;99.90;;;;;;4937235;29;20031;-80
2023/09/14 06:43:07;;;;;;;33.08;27.83;;;16.50;99.90;;;;;;4938061;29;20907;-81
2023/09/14 06:45:34;;;;;;;28.45;25.35;;;16.50;99.90;;;;;;4937932;29;20680;-80
2023/09/14 06:48:00;;;;;;;32.65;26.45;;;16.50;99.90;;;;;;4938175;29;20038;-80
2023/09/14 06:50:27;;;;;;;31.58;25.77;;;16.60;99.90;;;;;;4937722;29;20031;-80
2023/09/14 06:52:52;;;;;;;33.13;26.77;;;16.60;99.90;;;;;;4937087;29;20023;-80
2023/09/14 06:55:19;;;;;;;32.58;26.38;;;16.70;99.90;;;;;;4937588;29;20031;-80
2023/09/14 06:57:45;;;;;;;32.67;26.50;;;16.70;99.90;;;;;;4937913;29;20154;-80
2023/09/14 07:00:14;;;;;;;34.78;27.83;;;16.60;99.90;;;;;;4937487;29;20035;-80
2023/09/14 07:02:41;;;;;;;34.78;28.92;;;16.70;99.90;;;;;;4936708;29;20519;-80
2023/09/14 07:05:08;;;;;;;37.03;29.48;;;16.70;99.90;;;;;;4936114;29;20091;-80
2023/09/14 07:07:34;;;;;;;36.00;30.27;;;16.70;99.90;;;;;;4937130;29;20427;-80
2023/09/14 07:09:59;;;;;;;38.00;30.08;;;16.60;99.90;;;;;;4936187;29;20046;-80
2023/09/14 07:12:25;;;;;;;37.47;31.08;;;16.70;99.90;;;;;;4936613;29;20040;-80
2023/09/14 07:14:50;;;;;;;37.05;31.63;;;16.60;99.90;;;;;;4936516;29;20030;-80
2023/09/14 07:17:16;;;;;;;39.92;32.70;;;16.70;99.90;;;;;;4938595;29;20023;-80
2023/09/14 07:19:42;;;;;;;38.53;32.90;;;16.70;99.90;;;;;;4939305;29;20142;-80
2023/09/14 07:22:07;;;;;;;42.63;33.40;;;16.70;99.90;;;;;;4942205;29;20079;-80
2023/09/14 07:24:33;;;;;;;41.25;34.15;;;16.70;99.90;;;;;;4942593;29;20059;-80
2023/09/14 07:26:59;;;;;;;41.45;34.88;;;16.70;99.90;;;;;;4948168;29;20031;-81
2023/09/14 07:29:24;;;;;;;45.35;35.45;;;16.70;99.90;;;;;;4951197;29;20023;-80
2023/09/14 07:31:51;;;;;;;44.15;36.33;;;16.70;99.90;;;;;;4960578;28;20082;-80
2023/09/14 07:34:16;;;;;;;48.08;39.03;;;16.70;99.90;;;;;;4957404;28;20036;-80
2023/09/14 07:36:42;;;;;;;52.08;38.67;;;16.80;99.90;;;;;;4938131;29;20031;-80
2023/09/14 07:39:08;;;;;;;48.45;38.13;;;16.80;99.90;;;;;;4937222;29;20151;-80
2023/09/14 07:41:34;;;;;;;49.13;39.53;;;16.80;99.90;;;;;;4937683;29;20039;-80
2023/09/14 07:43:59;;;;;;;48.45;37.67;;;16.80;99.90;;;;;;4935974;29;20037;-80
2023/09/14 07:46:25;;;;;;;44.70;35.80;;;16.80;99.90;;;;;;4935947;29;20031;-80
2023/09/14 07:48:50;;;;;;;46.00;38.00;;;16.80;99.90;;;;;;4937117;29;20046;-80
2023/09/14 07:51:16;;;;;;;43.42;36.17;;;16.90;99.90;;;;;;4936093;29;20032;-80
2023/09/14 07:53:41;;;;;;;45.42;35.85;;;17.00;99.90;;;;;;4924903;29;20031;-80
2023/09/14 07:56:07;;;;;;;43.15;36.72;;;16.90;99.90;;;;;;4935982;29;20495;-81
2023/09/14 07:58:32;;;;;;;45.03;36.42;;;17.00;99.90;;;;;;4936856;29;20039;-80
2023/09/14 08:00:58;;;;;;;41.58;35.00;;;17.00;99.90;;;;;;4936439;29;20082;-80
2023/09/14 08:03:25;;;;;;;38.03;32.97;;;17.00;99.90;;;;;;4936850;29;20103;-80
2023/09/14 08:05:51;;;;;;;40.15;34.38;;;17.10;99.90;;;;;;4936435;29;20023;-80
2023/09/14 08:08:17;;;;;;;38.63;34.25;;;17.20;99.90;;;;;;4937233;29;20039;-81
2023/09/14 08:10:50;;;;;;;36.05;31.90;;;17.20;99.90;;;;;;4936726;29;20082;-80
2023/09/14 08:13:15;;;;;;;39.50;33.30;;;17.30;99.90;;;;;;4937904;29;20031;-80
2023/09/14 08:15:41;;;;;;;42.33;33.65;;;17.40;99.90;;;;;;4935850;29;20020;-80
2023/09/14 08:18:07;;;;;;;40.83;32.97;;;17.40;99.90;;;;;;4938819;29;20168;-80
2023/09/14 08:20:42;;;;;;;37.42;31.90;;;17.50;99.90;;;;;;4937754;29;20398;-80
2023/09/14 08:23:09;;;;;;;34.15;30.38;;;17.50;99.90;;;;;;4938419;29;20028;-80
2023/09/14 08:25:37;;;;;;;37.10;31.80;;;17.50;99.90;;;;;;4936409;29;20042;-80
2023/09/14 08:28:03;;;;;;;35.47;30.60;;;17.60;99.90;;;;;;4935632;29;20406;-80
2023/09/14 08:30:29;;;;;;;41.03;30.20;;;17.70;99.90;;;;;;4934883;29;20043;-80
2023/09/14 08:32:54;;;;;;;36.85;31.45;;;17.70;99.90;;;;;;4936389;29;20031;-80
2023/09/14 08:35:31;;;;;;;35.80;30.52;;;17.70;99.90;;;;;;4934957;29;20037;-80
2023/09/14 08:37:57;;;;;;;36.00;30.27;;;17.80;99.90;;;;;;4937474;29;21395;-80
2023/09/14 08:40:24;;;;;;;37.53;32.58;;;17.80;99.90;;;;;;4935334;29;20039;-80
2023/09/14 08:42:52;;;;;;;36.60;31.10;;;17.90;99.90;;;;;;4935806;29;20383;-80
2023/09/14 08:45:38;;;;;;;33.42;29.60;;;17.80;99.90;;;;;;4935740;29;20032;-80
2023/09/14 08:48:05;;;;;;;39.35;31.75;;;17.90;99.90;;;;;;4935063;29;20050;-81
2023/09/14 08:50:34;;;;;;;36.30;30.27;;;18.00;99.90;;;;;;4935204;29;20557;-80
2023/09/14 08:53:00;;;;;;;34.00;29.38;;;18.00;99.90;;;;;;4935456;29;20024;-80
2023/09/14 08:55:33;;;;;;;36.78;29.58;;;18.10;99.90;;;;;;4934967;29;20028;-81
2023/09/14 08:57:59;;;;;;;36.30;29.98;;;18.10;99.90;;;;;;4935330;29;20024;-81
2023/09/14 09:00:28;;;;;;;33.63;30.02;;;18.20;99.90;;;;;;4935640;29;20059;-81
2023/09/14 09:02:55;;;;;;;35.53;29.50;;;18.30;99.90;;;;;;4937682;29;20082;-80
2023/09/14 09:05:24;;;;;;;34.38;29.75;;;18.40;99.90;;;;;;4936440;29;20082;-80
2023/09/14 09:07:50;;;;;;;34.40;29.35;;;18.40;99.90;;;;;;4936932;29;20054;-81
2023/09/14 09:10:26;;;;;;;32.03;28.20;;;18.30;99.90;;;;;;4934982;29;20038;-81
2023/09/14 09:12:58;;;;;;;29.88;26.60;;;18.40;99.90;;;;;;4935250;29;20046;-81
2023/09/14 09:15:25;;;;;;;30.83;27.52;;;18.40;99.90;;;;;;4936186;29;20019;-81
2023/09/14 09:17:54;;;;;;;31.50;27.23;;;18.40;99.90;;;;;;4935365;28;20051;-80
2023/09/14 09:20:24;;;;;;;31.25;27.35;;;18.40;99.90;;;;;;4935253;29;20031;-81
2023/09/14 09:22:56;;;;;;;35.58;28.25;;;18.50;99.90;;;;;;4936615;29;20386;-81
2023/09/14 09:25:22;;;;;;;32.97;28.13;;;18.50;99.90;;;;;;4935398;29;20050;-80
2023/09/14 09:27:57;;;;;;;32.97;27.17;;;18.50;99.90;;;;;;4935941;29;20064;-81
2023/09/14 09:30:32;;;;;;;33.50;27.27;;;18.40;99.90;;;;;;4935236;29;20081;-81
2023/09/14 09:32:58;;;;;;;30.08;26.83;;;18.40;99.90;;;;;;4935487;29;20034;-81
2023/09/14 09:35:25;;;;;;;34.35;29.30;;;18.40;99.90;;;;;;4937002;29;20027;-81
2023/09/14 09:37:53;;;;;;;31.23;25.85;;;18.50;99.90;;;;;;4934600;29;20069;-80
2023/09/14 09:40:27;;;;;;;32.00;24.83;;;18.60;99.90;;;;;;4935476;29;20103;-81
2023/09/14 09:42:54;;;;;;;27.83;24.52;;;18.70;99.90;;;;;;4935096;29;20521;-81
2023/09/14 09:45:23;;;;;;;26.65;22.02;;;18.80;99.90;;;;;;4923687;29;20082;-81
2023/09/14 09:47:49;;;;;;;24.52;21.42;;;18.80;99.90;;;;;;4936995;29;20031;-81
2023/09/14 09:50:19;;;;;;;28.17;21.40;;;18.90;99.90;;;;;;4936343;29;20050;-81
2023/09/14 09:52:46;;;;;;;25.55;20.02;;;18.90;99.90;;;;;;4937764;29;20506;-81
2023/09/14 09:55:23;;;;;;;23.02;19.27;;;19.00;99.90;;;;;;4936272;29;20620;-81
2023/09/14 09:57:50;;;;;;;24.05;19.67;;;19.10;99.90;;;;;;4936634;29;20030;-81
2023/09/14 10:00:16;;;;;;;21.90;18.85;;;19.10;99.90;;;;;;4935822;29;20059;-81
2023/09/14 10:02:42;;;;;;;22.80;19.25;;;19.20;99.90;;;;;;4937235;29;20047;-81
2023/09/14 10:05:08;;;;;;;24.00;18.85;;;19.20;99.90;;;;;;4936818;29;21154;-81
2023/09/14 10:07:39;;;;;;;22.52;19.05;;;19.40;99.90;;;;;;4926666;29;20094;-81
2023/09/14 10:10:06;;;;;;;20.88;18.42;;;19.50;99.90;;;;;;4939731;29;20036;-81
2023/09/14 10:12:34;;;;;;;24.38;18.95;;;19.60;99.90;;;;;;4942253;29;20071;-81
2023/09/14 10:15:04;;;;;;;21.90;19.15;;;19.60;99.90;;;;;;4942376;29;20047;-81
2023/09/14 10:17:30;;;;;;;21.02;18.73;;;19.70;99.90;;;;;;4943089;29;20039;-81
2023/09/14 10:19:58;;;;;;;22.45;17.70;;;19.80;99.90;;;;;;4944858;29;20032;-81
2023/09/14 10:22:25;;;;;;;27.30;21.23;;;19.90;99.90;;;;;;4945117;29;20031;-81
2023/09/14 10:24:50;;;;;;;22.58;19.92;;;20.00;99.90;;;;;;4953276;28;20038;-81
2023/09/14 10:27:16;;;;;;;22.77;19.00;;;20.20;99.90;;;;;;4964924;28;20027;-80
2023/09/14 10:29:44;;;;;;;20.80;18.58;;;20.30;99.90;;;;;;4964755;28;20023;-81
2023/09/14 10:32:15;;;;;;;22.90;19.95;;;20.40;99.90;;;;;;4938962;29;20528;-81
2023/09/14 10:34:41;;;;;;;22.90;19.48;;;20.60;99.90;;;;;;4938559;29;20075;-81
2023/09/14 10:37:10;;;;;;;22.63;18.75;;;20.80;99.90;;;;;;4938184;29;20047;-82
2023/09/14 10:39:37;;;;;;;21.90;17.52;;;21.00;99.90;;;;;;4936834;29;20044;-81
2023/09/14 10:42:03;;;;;;;26.08;18.30;;;21.20;99.90;;;;;;4938930;29;20032;-81
2023/09/14 10:44:30;;;;;;;26.58;18.33;;;21.40;99.90;;;;;;4936700;29;20059;-81
2023/09/14 10:46:59;;;;;;;21.02;17.02;;;21.40;99.90;;;;;;4936732;29;20113;-81
2023/09/14 10:49:28;;;;;;;19.75;17.00;;;21.20;99.90;;;;;;4936543;29;20134;-81
2023/09/14 10:51:55;;;;;;;19.73;17.15;;;21.10;99.90;;;;;;4937121;29;20027;-81
2023/09/14 10:54:31;;;;;;;19.45;16.25;;;21.10;99.90;;;;;;4938586;29;20038;-81
2023/09/14 10:56:59;;;;;;;20.83;16.33;;;21.10;99.90;;;;;;4938902;29;20143;-82
2023/09/14 10:59:51;;;;;;;19.20;16.52;;;21.30;99.90;;;;;;4937776;29;20019;-82
2023/09/14 11:02:39;;;;;;;17.77;13.63;;;21.40;99.90;;;;;;4938172;29;20030;-82
2023/09/14 11:05:25;;;;;;;17.08;14.65;;;21.60;99.90;;;;;;4936311;29;20487;-82
2023/09/14 11:07:59;;;;;;;19.70;14.05;;;21.70;99.90;;;;;;4937267;29;20031;-82
2023/09/14 11:10:26;;;;;;;19.08;15.63;;;21.90;99.90;;;;;;4942343;29;20114;-83
2023/09/14 11:12:52;;;;;;;18.20;15.82;;;22.20;99.90;;;;;;4940765;28;20509;-82
2023/09/14 11:15:22;;;;;;;19.88;15.98;;;22.20;99.90;;;;;;4944814;29;20023;-82
2023/09/14 11:17:52;;;;;;;17.13;14.68;;;22.10;99.90;;;;;;4941376;28;20046;-82
2023/09/14 11:20:24;;;;;;;17.45;14.18;;;22.30;99.90;;;;;;4944592;29;20032;-82
2023/09/14 11:22:51;;;;;;;18.27;15.20;;;22.40;99.90;;;;;;4938931;29;20031;-82
2023/09/14 11:25:32;;;;;;;19.30;16.33;;;22.60;99.90;;;;;;4942681;29;20099;-82
2023/09/14 11:27:58;;;;;;;20.42;16.55;;;22.80;99.90;;;;;;4942367;29;20078;-83
2023/09/14 11:30:24;;;;;;;16.73;15.00;;;22.90;99.90;;;;;;4939881;29;20078;-82
2023/09/14 11:32:52;;;;;;;16.73;14.52;;;23.00;99.90;;;;;;4941882;29;20508;-83
2023/09/14 11:35:18;;;;;;;14.40;12.30;;;23.30;99.90;;;;;;4942144;29;20031;-83
2023/09/14 11:37:45;;;;;;;14.13;12.63;;;23.60;99.90;;;;;;4941961;29;20090;-82
2023/09/14 11:40:17;;;;;;;14.90;12.60;;;23.90;99.90;;;;;;4939693;29;20042;-82
2023/09/14 11:43:10;;;;;;;16.52;13.13;;;23.80;99.90;;;;;;4941509;29;20098;-82
2023/09/14 11:45:41;;;;;;;16.85;13.55;;;23.50;99.90;;;;;;4941176;29;20058;-83
2023/09/14 11:48:12;;;;;;;18.20;14.15;;;23.20;99.90;;;;;;4942011;29;20034;-82
2023/09/14 11:50:40;;;;;;;17.60;14.00;;;22.90;99.90;;;;;;4923774;29;20119;-83
2023/09/14 11:53:08;;;;;;;13.88;11.63;;;22.70;99.90;;;;;;4939357;29;20789;-82
2023/09/14 11:55:34;;;;;;;18.65;14.25;;;22.70;99.90;;;;;;4937194;29;20042;-83
2023/09/14 11:57:59;;;;;;;18.00;13.00;;;22.70;99.90;;;;;;4938150;29;20019;-82
2023/09/14 12:00:35;;;;;;;16.02;12.60;;;22.40;99.90;;;;;;4939048;29;20039;-82
2023/09/14 12:03:00;;;;;;;15.23;11.65;;;22.20;99.90;;;;;;4938732;29;20106;-82
2023/09/14 12:05:26;;;;;;;14.23;11.43;;;22.10;99.90;;;;;;4939788;29;20027;-83
2023/09/14 12:07:51;;;;;;;16.92;12.77;;;22.20;99.90;;;;;;4935724;29;20143;-83
2023/09/14 12:10:21;;;;;;;14.43;12.40;;;22.50;99.90;;;;;;4934748;29;20019;-83
2023/09/14 12:12:47;;;;;;;17.38;13.10;;;22.70;99.90;;;;;;4937159;29;20113;-82
2023/09/14 12:15:22;;;;;;;15.38;12.52;;;22.70;99.90;;;;;;4935305;29;20035;-83
2023/09/14 12:17:52;;;;;;;17.88;14.32;;;22.60;99.90;;;;;;4935836;29;20486;-83
2023/09/14 12:20:19;;;;;;;18.05;13.32;;;22.60;99.90;;;;;;4935942;29;20709;-83
2023/09/14 12:22:45;;;;;;;17.00;14.32;;;22.50;99.90;;;;;;4937383;29;20019;-83
2023/09/14 12:25:13;;;;;;;16.63;13.77;;;22.40;99.90;;;;;;4937432;29;20027;-83
2023/09/14 12:27:40;;;;;;;18.52;13.95;;;22.40;99.90;;;;;;4919960;29;20122;-83
2023/09/14 12:30:09;;;;;;;14.23;12.10;;;22.50;99.90;;;;;;4935617;28;20538;-83